createdAt,value
2018-12-19T00:00:47.526Z,2.88
2018-12-19T00:03:14.924Z,2.85
2018-12-19T00:05:42.330Z,2.97
2018-12-19T00:08:09.722Z,2.88
2018-12-19T00:10:37.110Z,2.93
2018-12-19T00:13:04.504Z,2.91
2018-12-19T00:15:32.063Z,2.90
2018-12-19T00:17:59.437Z,2.86
2018-12-19T00:20:26.875Z,2.84
2018-12-19T00:22:54.838Z,2.91
2018-12-19T00:25:22.286Z,2.95
2018-12-19T00:27:49.684Z,3.04
2018-12-19T00:30:17.079Z,2.88
2018-12-19T00:32:44.462Z,2.75
2018-12-19T00:35:11.923Z,2.74
2018-12-19T00:37:39.302Z,2.65
2018-12-19T00:40:06.734Z,2.63
2018-12-19T00:42:34.189Z,2.64
2018-12-19T00:45:01.587Z,2.69
2018-12-19T00:47:28.970Z,2.66
2018-12-19T00:49:56.374Z,2.66
2018-12-19T00:52:23.857Z,2.64
2018-12-19T00:54:51.271Z,2.62
2018-12-19T00:57:18.666Z,2.64
2018-12-19T00:59:46.058Z,2.68
2018-12-19T01:02:13.543Z,2.65
2018-12-19T01:04:40.990Z,2.69
2018-12-19T01:07:08.447Z,2.68
2018-12-19T01:09:36.020Z,2.80
2018-12-19T01:12:03.394Z,2.83
2018-12-19T01:14:30.786Z,2.85
2018-12-19T01:16:58.274Z,2.85
2018-12-19T01:19:25.730Z,2.86
2018-12-19T01:21:53.123Z,2.86
2018-12-19T01:24:20.994Z,2.90
2018-12-19T01:26:48.418Z,2.85
2018-12-19T01:29:15.879Z,2.87
2018-12-19T01:31:43.259Z,2.88
2018-12-19T01:34:10.679Z,2.97
2018-12-19T01:36:38.071Z,2.96
2018-12-19T01:39:06.363Z,2.96
2018-12-19T01:41:33.865Z,3.02
2018-12-19T01:44:01.322Z,3.06
2018-12-19T01:46:28.714Z,3.04
2018-12-19T01:48:56.142Z,3.04
2018-12-19T01:51:23.546Z,3.01
2018-12-19T01:53:50.946Z,3.00
2018-12-19T01:56:18.405Z,3.07
2018-12-19T01:58:45.778Z,3.04
2018-12-19T02:01:13.216Z,3.01
2018-12-19T02:03:40.673Z,3.06
2018-12-19T02:06:08.062Z,3.07
2018-12-19T02:08:35.438Z,3.05
2018-12-19T02:11:02.837Z,3.08
2018-12-19T02:13:30.299Z,3.09
2018-12-19T02:15:57.750Z,3.07
2018-12-19T02:18:25.206Z,3.10
2018-12-19T02:20:52.661Z,3.03
2018-12-19T02:23:20.129Z,2.98
2018-12-19T02:25:47.502Z,2.96
2018-12-19T02:28:15.037Z,2.92
2018-12-19T02:30:42.490Z,2.88
2018-12-19T02:33:10.063Z,2.96
2018-12-19T02:35:37.418Z,2.97
2018-12-19T02:38:04.872Z,2.97
2018-12-19T02:40:32.254Z,2.97
2018-12-19T02:42:59.681Z,3.06
2018-12-19T02:45:27.133Z,3.02
2018-12-19T02:47:54.587Z,3.01
2018-12-19T02:50:22.050Z,2.97
2018-12-19T02:52:49.503Z,2.94
2018-12-19T02:55:16.958Z,2.92
2018-12-19T02:57:44.422Z,2.97
2018-12-19T03:00:11.866Z,2.92
2018-12-19T03:02:39.267Z,2.95
2018-12-19T03:05:06.786Z,2.97
2018-12-19T03:07:34.175Z,3.01
2018-12-19T03:10:01.740Z,2.96
2018-12-19T03:12:29.258Z,2.94
2018-12-19T03:14:56.716Z,2.89
2018-12-19T03:17:24.170Z,2.88
2018-12-19T03:19:51.627Z,2.86
2018-12-19T03:22:19.095Z,2.80
2018-12-19T03:24:46.542Z,2.75
2018-12-19T03:27:13.932Z,2.77
2018-12-19T03:29:41.318Z,2.79
2018-12-19T03:32:08.717Z,2.76
2018-12-19T03:34:36.098Z,2.83
2018-12-19T03:37:03.494Z,2.81
2018-12-19T03:39:31.005Z,2.88
2018-12-19T03:41:58.529Z,2.87
2018-12-19T03:44:25.943Z,2.85
2018-12-19T03:46:53.418Z,2.90
2018-12-19T03:49:21.202Z,2.99
2018-12-19T03:51:48.683Z,3.02
2018-12-19T03:54:16.481Z,2.98
2018-12-19T03:56:44.078Z,2.97
2018-12-19T03:59:11.538Z,3.01
2018-12-19T04:01:39.122Z,2.99
2018-12-19T04:04:06.493Z,3.04
2018-12-19T04:06:34.026Z,3.08
2018-12-19T04:09:01.422Z,3.06
2018-12-19T04:11:28.802Z,3.08
2018-12-19T04:13:56.299Z,3.23
2018-12-19T04:16:23.754Z,3.29
2018-12-19T04:18:51.158Z,3.22
2018-12-19T04:21:18.566Z,3.27
2018-12-19T04:23:46.018Z,3.31
2018-12-19T04:26:13.474Z,3.28
2018-12-19T04:28:40.939Z,3.21
2018-12-19T04:31:08.721Z,3.18
2018-12-19T04:33:36.155Z,3.17
2018-12-19T04:36:04.147Z,3.15
2018-12-19T04:38:31.830Z,3.17
2018-12-19T04:40:59.456Z,3.10
2018-12-19T04:43:27.018Z,3.03
2018-12-19T04:45:54.398Z,3.03
2018-12-19T04:48:21.814Z,2.98
2018-12-19T04:50:49.194Z,3.07
2018-12-19T04:53:16.639Z,3.02
2018-12-19T04:55:44.049Z,2.97
2018-12-19T04:58:11.467Z,3.01
2018-12-19T05:00:38.901Z,2.97
2018-12-19T05:03:06.369Z,3.01
2018-12-19T05:05:33.822Z,2.98
2018-12-19T05:08:01.215Z,3.04
2018-12-19T05:10:28.631Z,2.98
2018-12-19T05:12:56.082Z,2.99
2018-12-19T05:15:23.643Z,3.12
2018-12-19T05:17:51.102Z,3.07
2018-12-19T05:20:18.563Z,3.02
2018-12-19T05:22:46.118Z,2.99
2018-12-19T05:25:14.593Z,3.07
2018-12-19T05:27:42.063Z,3.11
2018-12-19T05:30:09.922Z,3.10
2018-12-19T05:32:37.298Z,3.27
2018-12-19T05:35:06.199Z,3.31
2018-12-19T05:37:33.658Z,3.16
2018-12-19T05:40:01.074Z,3.07
2018-12-19T05:42:28.535Z,3.02
2018-12-19T05:44:55.923Z,3.00
2018-12-19T05:47:23.556Z,3.01
2018-12-19T05:49:51.219Z,3.15
2018-12-19T05:52:20.314Z,3.13
2018-12-19T05:54:47.911Z,3.03
2018-12-19T05:57:15.491Z,3.03
2018-12-19T05:59:43.722Z,3.04
2018-12-19T06:02:11.166Z,3.15
2018-12-19T06:04:38.618Z,3.13
2018-12-19T06:07:05.998Z,3.22
2018-12-19T06:09:33.386Z,3.17
2018-12-19T06:12:00.762Z,3.22
2018-12-19T06:14:28.221Z,3.23
2018-12-19T06:16:55.611Z,3.22
2018-12-19T06:19:23.042Z,3.27
2018-12-19T06:21:50.542Z,3.24
2018-12-19T06:24:17.972Z,3.27
2018-12-19T06:26:45.418Z,3.25
2018-12-19T06:29:12.796Z,3.23
2018-12-19T06:31:40.231Z,3.25
2018-12-19T06:34:07.698Z,3.29
2018-12-19T06:36:35.095Z,3.22
2018-12-19T06:39:02.483Z,3.27
2018-12-19T06:41:29.950Z,3.24
2018-12-19T06:43:57.414Z,3.32
2018-12-19T06:46:24.879Z,3.30
2018-12-19T06:48:52.379Z,3.29
2018-12-19T06:51:19.878Z,3.35
2018-12-19T06:53:47.334Z,3.30
2018-12-19T06:56:14.907Z,3.37
2018-12-19T06:58:42.350Z,3.41
2018-12-19T07:01:09.745Z,3.39
2018-12-19T07:03:37.162Z,3.31
2018-12-19T07:06:04.626Z,3.35
2018-12-19T07:08:32.074Z,3.35
2018-12-19T07:10:59.539Z,3.29
2018-12-19T07:13:27.215Z,3.26
2018-12-19T07:15:54.597Z,3.22
2018-12-19T07:18:21.990Z,3.24
2018-12-19T07:20:49.386Z,3.33
2018-12-19T07:23:16.770Z,3.23
2018-12-19T07:25:44.154Z,3.31
2018-12-19T07:28:11.535Z,3.34
2018-12-19T07:30:38.986Z,3.40
2018-12-19T07:33:06.444Z,3.40
2018-12-19T07:35:33.827Z,3.37
2018-12-19T07:38:01.254Z,3.43
2018-12-19T07:40:28.654Z,3.36
2018-12-19T07:42:56.039Z,3.38
2018-12-19T07:45:23.527Z,3.35
2018-12-19T07:47:50.958Z,3.28
2018-12-19T07:50:18.455Z,3.37
2018-12-19T07:52:46.162Z,3.33
2018-12-19T07:55:13.538Z,3.30
2018-12-19T07:57:41.014Z,3.33
2018-12-19T08:00:08.410Z,3.34
2018-12-19T08:02:35.794Z,3.36
2018-12-19T08:05:03.178Z,3.36
2018-12-19T08:07:30.570Z,3.40
2018-12-19T08:09:57.990Z,3.40
2018-12-19T08:12:25.403Z,3.47
2018-12-19T08:14:54.757Z,3.45
2018-12-19T08:17:22.146Z,3.45
2018-12-19T08:19:49.558Z,3.47
2018-12-19T08:22:16.955Z,3.46
2018-12-19T08:24:44.418Z,3.60
2018-12-19T08:27:11.822Z,3.61
2018-12-19T08:29:39.199Z,3.66
2018-12-19T08:32:06.666Z,3.66
2018-12-19T08:34:34.058Z,3.68
2018-12-19T08:37:01.440Z,3.60
2018-12-19T08:39:29.134Z,3.72
2018-12-19T08:41:56.814Z,3.69
2018-12-19T08:44:24.506Z,3.61
2018-12-19T08:46:52.047Z,3.60
2018-12-19T08:49:19.450Z,3.67
2018-12-19T08:51:46.906Z,3.71
2018-12-19T08:54:14.362Z,3.54
2018-12-19T08:56:41.813Z,3.63
2018-12-19T08:59:09.275Z,3.66
2018-12-19T09:01:36.670Z,3.56
2018-12-19T09:04:04.065Z,3.58
2018-12-19T09:06:31.541Z,3.56
2018-12-19T09:08:59.014Z,3.50
2018-12-19T09:11:26.563Z,3.62
2018-12-19T09:13:53.964Z,3.67
2018-12-19T09:16:21.366Z,3.81
2018-12-19T09:18:48.826Z,3.81
2018-12-19T09:21:16.286Z,3.87
2018-12-19T09:23:43.674Z,3.83
2018-12-19T09:26:11.057Z,3.75
2018-12-19T09:28:38.514Z,3.75
2018-12-19T09:31:05.902Z,3.82
2018-12-19T09:33:33.362Z,3.92
2018-12-19T09:36:00.834Z,4.11
2018-12-19T09:38:28.229Z,4.18
2018-12-19T09:40:55.615Z,4.20
2018-12-19T09:43:23.026Z,4.20
2018-12-19T09:45:50.442Z,4.27
2018-12-19T09:48:18.230Z,4.22
2018-12-19T09:50:45.630Z,4.12
2018-12-19T09:53:13.422Z,4.16
2018-12-19T09:55:40.967Z,4.24
2018-12-19T09:58:08.354Z,4.37
2018-12-19T10:00:35.808Z,4.42
2018-12-19T10:03:03.254Z,4.35
2018-12-19T10:05:30.758Z,4.31
2018-12-19T10:07:58.170Z,4.34
2018-12-19T10:10:25.566Z,4.37
2018-12-19T10:12:52.974Z,4.50
2018-12-19T10:15:20.366Z,4.73
2018-12-19T10:17:47.791Z,4.72
2018-12-19T10:20:15.250Z,4.78
2018-12-19T10:22:42.706Z,4.76
2018-12-19T10:25:13.685Z,4.63
2018-12-19T10:27:41.175Z,4.62
2018-12-19T10:30:10.815Z,4.73
2018-12-19T10:32:39.484Z,4.88
2018-12-19T10:35:08.485Z,4.83
2018-12-19T10:37:36.055Z,4.89
2018-12-19T10:40:05.341Z,4.98
2018-12-19T10:42:32.738Z,5.19
2018-12-19T10:45:00.158Z,5.17
2018-12-19T10:47:27.555Z,5.10
2018-12-19T10:49:54.979Z,5.07
2018-12-19T10:52:22.435Z,5.18
2018-12-19T10:54:49.890Z,5.23
2018-12-19T10:57:17.341Z,5.17
2018-12-19T10:59:44.806Z,5.20
2018-12-19T11:02:12.202Z,5.27
2018-12-19T11:04:39.603Z,5.27
2018-12-19T11:07:06.990Z,5.28
2018-12-19T11:09:34.382Z,5.35
2018-12-19T11:12:01.894Z,5.31
2018-12-19T11:14:29.402Z,5.38
2018-12-19T11:16:57.021Z,5.51
2018-12-19T11:19:24.459Z,5.52
2018-12-19T11:21:51.856Z,5.40
2018-12-19T11:24:19.249Z,5.36
2018-12-19T11:26:46.750Z,5.41
2018-12-19T11:29:14.136Z,5.31
2018-12-19T11:31:41.553Z,5.29
2018-12-19T11:34:08.965Z,5.50
2018-12-19T11:36:36.574Z,5.52
2018-12-19T11:39:06.752Z,5.52
2018-12-19T11:41:38.955Z,5.65
2018-12-19T11:44:04.141Z,5.69
2018-12-19T11:46:31.606Z,5.77
2018-12-19T11:48:59.067Z,5.72
2018-12-19T11:51:26.464Z,5.78
2018-12-19T11:53:53.853Z,5.92
2018-12-19T11:56:21.321Z,6.08
2018-12-19T11:58:48.715Z,6.08
2018-12-19T12:01:16.143Z,6.11
2018-12-19T12:03:43.518Z,6.05
2018-12-19T12:06:10.910Z,6.16
2018-12-19T12:08:38.290Z,6.23
2018-12-19T12:11:05.762Z,6.21
2018-12-19T12:13:33.225Z,6.35
2018-12-19T12:16:00.651Z,6.51
2018-12-19T12:18:28.135Z,6.62
2018-12-19T12:20:55.582Z,6.79
2018-12-19T12:23:23.048Z,6.86
2018-12-19T12:25:50.443Z,6.92
2018-12-19T12:28:17.869Z,6.92
2018-12-19T12:30:45.314Z,6.94
2018-12-19T12:33:12.719Z,6.75
2018-12-19T12:35:40.315Z,6.84
2018-12-19T12:38:08.208Z,6.65
2018-12-19T12:40:35.586Z,6.63
2018-12-19T12:43:03.010Z,6.43
2018-12-19T12:45:30.403Z,6.57
2018-12-19T12:47:57.824Z,6.79
2018-12-19T12:50:25.273Z,6.87
2018-12-19T12:52:52.843Z,6.87
2018-12-19T12:55:20.242Z,6.97
2018-12-19T12:57:47.718Z,7.01
2018-12-19T13:00:15.102Z,7.04
2018-12-19T13:02:42.567Z,7.14
2018-12-19T13:05:10.124Z,6.98
2018-12-19T13:07:37.582Z,7.00
2018-12-19T13:10:07.465Z,7.00
2018-12-19T13:12:34.855Z,7.02
2018-12-19T13:15:02.516Z,6.92
2018-12-19T13:17:29.902Z,7.10
2018-12-19T13:19:57.310Z,7.09
2018-12-19T13:22:24.707Z,7.30
2018-12-19T13:24:52.126Z,7.51
2018-12-19T13:27:19.606Z,7.53
2018-12-19T13:29:47.042Z,7.53
2018-12-19T13:32:14.438Z,7.54
2018-12-19T13:34:41.837Z,7.32
2018-12-19T13:37:09.315Z,7.12
2018-12-19T13:39:36.719Z,7.22
2018-12-19T13:42:05.812Z,7.17
2018-12-19T13:44:33.528Z,7.14
2018-12-19T13:47:00.988Z,7.17
2018-12-19T13:49:28.387Z,7.31
2018-12-19T13:51:55.797Z,7.50
2018-12-19T13:54:23.260Z,7.55
2018-12-19T13:56:50.647Z,7.48
2018-12-19T13:59:18.070Z,7.49
2018-12-19T14:01:45.481Z,7.46
2018-12-19T14:04:12.887Z,7.45
2018-12-19T14:06:40.286Z,7.31
2018-12-19T14:09:07.684Z,7.41
2018-12-19T14:11:35.170Z,7.41
2018-12-19T14:14:02.597Z,7.48
2018-12-19T14:16:30.059Z,7.49
2018-12-19T14:18:57.519Z,7.43
2018-12-19T14:21:24.905Z,7.46
2018-12-19T14:23:52.345Z,7.37
2018-12-19T14:26:19.790Z,7.54
2018-12-19T14:28:47.249Z,7.48
2018-12-19T14:31:14.647Z,7.45
2018-12-19T14:33:42.031Z,7.46
2018-12-19T14:36:09.427Z,7.49
2018-12-19T14:38:36.823Z,7.61
2018-12-19T14:41:04.328Z,7.48
2018-12-19T14:43:31.710Z,7.47
2018-12-19T14:45:59.629Z,7.51
2018-12-19T14:48:27.115Z,7.46
2018-12-19T14:50:54.610Z,7.46
2018-12-19T14:53:21.999Z,7.45
2018-12-19T14:55:49.402Z,7.53
2018-12-19T14:58:16.836Z,7.47
2018-12-19T15:00:44.229Z,7.61
2018-12-19T15:03:11.613Z,7.51
2018-12-19T15:05:39.005Z,7.35
2018-12-19T15:08:06.450Z,7.21
2018-12-19T15:10:33.843Z,7.17
2018-12-19T15:13:01.267Z,7.13
2018-12-19T15:15:28.722Z,7.05
2018-12-19T15:17:56.188Z,7.12
2018-12-19T15:20:23.630Z,7.17
2018-12-19T15:22:51.017Z,7.12
2018-12-19T15:25:18.447Z,7.19
2018-12-19T15:27:45.914Z,7.22
2018-12-19T15:30:13.364Z,7.28
2018-12-19T15:32:40.834Z,7.42
2018-12-19T15:35:08.275Z,7.33
2018-12-19T15:37:35.735Z,7.30
2018-12-19T15:40:03.347Z,7.16
2018-12-19T15:42:32.682Z,7.24
2018-12-19T15:45:00.151Z,7.13
2018-12-19T15:47:27.550Z,7.21
2018-12-19T15:49:54.962Z,7.29
2018-12-19T15:52:22.528Z,7.43
2018-12-19T15:54:49.906Z,7.32
2018-12-19T15:57:17.294Z,7.34
2018-12-19T15:59:44.783Z,7.37
2018-12-19T16:02:12.247Z,7.24
2018-12-19T16:04:39.709Z,7.23
2018-12-19T16:07:07.106Z,7.11
2018-12-19T16:09:34.486Z,7.06
2018-12-19T16:12:01.981Z,6.94
2018-12-19T16:14:29.360Z,6.77
2018-12-19T16:16:56.795Z,6.87
2018-12-19T16:19:24.235Z,6.94
2018-12-19T16:21:51.622Z,6.88
2018-12-19T16:24:19.006Z,6.84
2018-12-19T16:26:46.414Z,6.90
2018-12-19T16:29:13.861Z,6.92
2018-12-19T16:31:41.258Z,6.83
2018-12-19T16:34:08.656Z,6.68
2018-12-19T16:36:36.050Z,6.64
2018-12-19T16:39:06.349Z,6.72
2018-12-19T16:41:33.824Z,6.64
2018-12-19T16:44:01.377Z,6.65
2018-12-19T16:46:28.825Z,6.59
2018-12-19T16:48:56.280Z,6.47
2018-12-19T16:51:23.742Z,6.56
2018-12-19T16:53:51.142Z,6.40
2018-12-19T16:56:18.649Z,6.22
2018-12-19T16:58:46.058Z,6.09
2018-12-19T17:01:13.769Z,6.18
2018-12-19T17:03:41.166Z,6.24
2018-12-19T17:06:08.552Z,6.02
2018-12-19T17:08:35.956Z,6.07
2018-12-19T17:11:03.397Z,6.04
2018-12-19T17:13:30.789Z,5.95
2018-12-19T17:15:58.206Z,5.82
2018-12-19T17:18:25.610Z,5.70
2018-12-19T17:20:53.007Z,5.77
2018-12-19T17:23:20.407Z,5.88
2018-12-19T17:25:47.936Z,5.91
2018-12-19T17:28:15.390Z,5.96
2018-12-19T17:30:42.783Z,5.79
2018-12-19T17:33:10.267Z,5.69
2018-12-19T17:35:37.658Z,5.70
2018-12-19T17:38:05.062Z,5.66
2018-12-19T17:40:32.450Z,5.78
2018-12-19T17:42:59.926Z,5.78
2018-12-19T17:45:27.382Z,5.63
2018-12-19T17:47:54.840Z,5.57
2018-12-19T17:50:22.298Z,5.59
2018-12-19T17:52:49.709Z,5.50
2018-12-19T17:55:17.169Z,5.49
2018-12-19T17:57:44.583Z,5.43
2018-12-19T18:00:12.155Z,5.54
2018-12-19T18:02:39.580Z,5.67
2018-12-19T18:05:07.142Z,5.68
2018-12-19T18:07:34.594Z,5.61
2018-12-19T18:10:02.088Z,5.79
2018-12-19T18:12:29.509Z,5.86
2018-12-19T18:14:56.886Z,5.82
2018-12-19T18:17:24.435Z,5.92
2018-12-19T18:19:51.883Z,6.05
2018-12-19T18:22:19.274Z,6.05
2018-12-19T18:24:46.672Z,6.18
2018-12-19T18:27:14.070Z,6.13
2018-12-19T18:29:41.522Z,6.13
2018-12-19T18:32:08.963Z,5.99
2018-12-19T18:34:36.356Z,5.94
2018-12-19T18:37:03.774Z,5.92
2018-12-19T18:39:31.235Z,5.95
2018-12-19T18:41:58.627Z,5.99
2018-12-19T18:44:26.048Z,6.08
2018-12-19T18:46:53.494Z,5.98
2018-12-19T18:49:20.959Z,6.08
2018-12-19T18:51:48.343Z,6.15
2018-12-19T18:54:15.742Z,6.31
2018-12-19T18:56:43.231Z,6.23
2018-12-19T18:59:10.637Z,6.16
2018-12-19T19:01:38.186Z,6.33
2018-12-19T19:04:05.702Z,6.16
2018-12-19T19:06:33.185Z,6.21
2018-12-19T19:09:00.724Z,6.00
2018-12-19T19:11:28.204Z,6.17
2018-12-19T19:13:55.635Z,6.10
2018-12-19T19:16:23.191Z,6.12
2018-12-19T19:18:50.637Z,6.16
2018-12-19T19:21:18.019Z,6.14
2018-12-19T19:23:45.425Z,6.08
2018-12-19T19:26:12.922Z,6.09
2018-12-19T19:28:40.306Z,6.01
2018-12-19T19:31:07.707Z,5.95
2018-12-19T19:33:35.189Z,5.92
2018-12-19T19:36:02.657Z,5.90
2018-12-19T19:38:30.054Z,5.98
2018-12-19T19:40:57.566Z,5.80
2018-12-19T19:43:26.680Z,5.76
2018-12-19T19:45:54.411Z,5.76
2018-12-19T19:48:21.818Z,5.77
2018-12-19T19:50:49.226Z,5.74
2018-12-19T19:53:16.627Z,5.58
2018-12-19T19:55:44.039Z,5.52
2018-12-19T19:58:11.493Z,5.42
2018-12-19T20:00:38.951Z,5.55
2018-12-19T20:03:06.410Z,5.59
2018-12-19T20:05:33.877Z,5.55
2018-12-19T20:08:01.322Z,5.57
2018-12-19T20:10:28.708Z,5.64
2018-12-19T20:12:56.130Z,5.76
2018-12-19T20:15:23.533Z,5.75
2018-12-19T20:17:50.915Z,5.82
2018-12-19T20:20:18.374Z,5.75
2018-12-19T20:22:45.782Z,5.61
2018-12-19T20:25:13.162Z,5.57
2018-12-19T20:27:40.568Z,5.67
2018-12-19T20:30:09.358Z,5.71
2018-12-19T20:32:36.816Z,5.80
2018-12-19T20:35:04.606Z,5.63
2018-12-19T20:37:32.030Z,5.57
2018-12-19T20:39:59.495Z,5.61
2018-12-19T20:42:26.882Z,5.69
2018-12-19T20:44:54.270Z,5.60
2018-12-19T20:47:21.746Z,5.42
2018-12-19T20:49:49.215Z,5.43
2018-12-19T20:52:16.676Z,5.29
2018-12-19T20:54:44.179Z,5.35
2018-12-19T20:57:11.697Z,5.40
2018-12-19T20:59:39.348Z,5.38
2018-12-19T21:02:06.942Z,5.38
2018-12-19T21:04:34.342Z,5.50
2018-12-19T21:07:01.722Z,5.41
2018-12-19T21:09:29.177Z,5.43
2018-12-19T21:11:56.611Z,5.52
2018-12-19T21:14:24.010Z,5.71
2018-12-19T21:16:57.096Z,5.94
2018-12-19T21:19:24.531Z,5.97
2018-12-19T21:21:51.938Z,6.11
2018-12-19T21:24:19.355Z,6.16
2018-12-19T21:26:46.753Z,6.23
2018-12-19T21:29:14.138Z,6.13
2018-12-19T21:31:41.614Z,6.17
2018-12-19T21:34:09.066Z,6.21
2018-12-19T21:36:36.528Z,6.07
2018-12-19T21:39:06.820Z,6.08
2018-12-19T21:41:34.215Z,6.15
2018-12-19T21:44:01.657Z,5.97
2018-12-19T21:46:29.156Z,5.99
2018-12-19T21:48:56.641Z,6.03
2018-12-19T21:51:24.134Z,5.99
2018-12-19T21:53:51.642Z,6.01
2018-12-19T21:56:19.171Z,5.98
2018-12-19T21:58:46.627Z,5.83
2018-12-19T22:01:14.023Z,5.91
2018-12-19T22:03:41.401Z,5.95
2018-12-19T22:06:08.880Z,5.92
2018-12-19T22:08:36.389Z,5.88
2018-12-19T22:11:05.438Z,5.71
2018-12-19T22:13:32.883Z,5.75
2018-12-19T22:16:00.349Z,5.80
2018-12-19T22:18:33.321Z,5.86
2018-12-19T22:21:00.845Z,5.92
2018-12-19T22:23:28.369Z,5.78
2018-12-19T22:25:55.942Z,5.94
2018-12-19T22:28:23.489Z,6.18
2018-12-19T22:30:50.955Z,6.17
2018-12-19T22:33:18.640Z,6.17
2018-12-19T22:35:46.100Z,6.15
2018-12-19T22:38:13.494Z,6.13
2018-12-19T22:40:41.112Z,6.09
2018-12-19T22:43:08.542Z,6.02
2018-12-19T22:45:36.007Z,5.91
2018-12-19T22:48:03.467Z,5.83
2018-12-19T22:50:30.873Z,5.82
2018-12-19T22:52:59.780Z,5.81
2018-12-19T22:55:27.530Z,5.77
2018-12-19T22:57:55.066Z,5.67
2018-12-19T23:00:22.474Z,5.70
2018-12-19T23:02:56.005Z,5.75
2018-12-19T23:05:29.255Z,5.76
2018-12-19T23:08:03.847Z,5.81
2018-12-19T23:10:31.505Z,5.85
2018-12-19T23:12:58.991Z,5.94
2018-12-19T23:15:26.444Z,6.05
2018-12-19T23:17:55.816Z,6.09
2018-12-19T23:20:23.393Z,6.15
2018-12-19T23:22:50.906Z,6.36
2018-12-19T23:25:18.717Z,6.29
2018-12-19T23:27:46.190Z,6.32
2018-12-19T23:30:13.612Z,6.35
2018-12-19T23:32:41.087Z,6.40
2018-12-19T23:35:08.619Z,6.45
2018-12-19T23:37:36.061Z,6.32
2018-12-19T23:40:04.307Z,6.25
2018-12-19T23:42:31.746Z,6.22
2018-12-19T23:44:59.186Z,6.29
2018-12-19T23:47:26.725Z,6.32
2018-12-19T23:49:54.195Z,6.14
2018-12-19T23:52:21.779Z,6.02
2018-12-19T23:54:49.342Z,6.01
2018-12-19T23:57:16.831Z,5.99
2018-12-19T23:59:44.274Z,5.95
